createdAt,value
2019-02-20T00:00:18.945Z,25.70
2019-02-20T00:02:46.865Z,29.33
2019-02-20T00:05:14.736Z,26.68
2019-02-20T00:07:42.660Z,27.85
2019-02-20T00:10:11.240Z,23.87
2019-02-20T00:12:39.378Z,26.93
2019-02-20T00:15:07.247Z,22.42
2019-02-20T00:17:35.008Z,21.37
2019-02-20T00:20:03.315Z,24.92
2019-02-20T00:22:39.794Z,22.37
2019-02-20T00:25:00.974Z,23.57
2019-02-20T00:27:28.841Z,22.67
2019-02-20T00:29:56.675Z,20.60
2019-02-20T00:32:24.430Z,19.35
2019-02-20T00:34:52.261Z,17.75
2019-02-20T00:37:20.043Z,20.57
2019-02-20T00:39:47.903Z,20.43
2019-02-20T00:42:15.964Z,18.15
2019-02-20T00:45:03.229Z,18.15
2019-02-20T00:47:49.147Z,17.95
2019-02-20T00:50:17.865Z,17.63
2019-02-20T00:53:03.359Z,21.77
2019-02-20T00:55:31.360Z,17.30
2019-02-20T00:57:59.101Z,20.73
2019-02-20T01:00:28.375Z,21.50
2019-02-20T01:02:56.282Z,18.57
2019-02-20T01:05:24.214Z,19.13
2019-02-20T01:07:51.952Z,17.57
2019-02-20T01:10:19.776Z,17.73
2019-02-20T01:12:47.553Z,16.87
2019-02-20T01:15:15.591Z,19.13
2019-02-20T01:17:43.441Z,17.73
2019-02-20T01:20:11.433Z,16.70
2019-02-20T01:22:39.805Z,17.73
2019-02-20T01:25:07.822Z,20.27
2019-02-20T01:27:35.670Z,20.95
2019-02-20T01:30:03.940Z,16.57
2019-02-20T01:32:31.704Z,20.40
2019-02-20T01:34:59.690Z,19.93
2019-02-20T01:37:27.551Z,17.67
2019-02-20T01:39:55.496Z,19.02
2019-02-20T01:42:23.247Z,21.15
2019-02-20T01:44:51.910Z,17.25
2019-02-20T01:47:19.761Z,18.17
2019-02-20T01:49:47.584Z,17.40
2019-02-20T01:52:15.382Z,18.05
2019-02-20T01:54:43.364Z,15.67
2019-02-20T01:57:11.344Z,17.20
2019-02-20T01:59:39.115Z,17.95
2019-02-20T02:02:07.023Z,17.33
2019-02-20T02:04:34.783Z,20.53
2019-02-20T02:07:02.816Z,17.53
2019-02-20T02:09:30.669Z,19.20
2019-02-20T02:11:58.470Z,19.70
2019-02-20T02:14:26.212Z,21.27
2019-02-20T02:16:54.198Z,16.57
2019-02-20T02:19:22.056Z,18.53
2019-02-20T02:21:49.855Z,17.53
2019-02-20T02:24:17.796Z,16.60
2019-02-20T02:26:45.743Z,16.93
2019-02-20T02:29:13.560Z,22.30
2019-02-20T02:31:41.794Z,19.50
2019-02-20T02:34:19.303Z,18.33
2019-02-20T02:36:48.002Z,19.50
2019-02-20T02:39:15.748Z,17.83
2019-02-20T02:41:44.828Z,21.05
2019-02-20T02:44:12.824Z,19.05
2019-02-20T02:46:40.725Z,17.80
2019-02-20T02:49:08.533Z,19.57
2019-02-20T02:51:36.417Z,18.70
2019-02-20T02:54:04.305Z,17.42
2019-02-20T02:56:32.201Z,18.50
2019-02-20T02:59:00.721Z,17.75
2019-02-20T03:01:29.284Z,15.10
2019-02-20T03:03:57.111Z,19.13
2019-02-20T03:06:24.959Z,20.13
2019-02-20T03:08:52.696Z,22.60
2019-02-20T03:11:20.443Z,18.77
2019-02-20T03:13:48.237Z,18.95
2019-02-20T03:16:16.080Z,18.40
2019-02-20T03:18:43.992Z,19.43
2019-02-20T03:21:11.758Z,19.07
2019-02-20T03:23:40.412Z,18.37
2019-02-20T03:26:08.857Z,19.93
2019-02-20T03:28:36.687Z,19.23
2019-02-20T03:31:04.460Z,17.42
2019-02-20T03:33:32.297Z,19.50
2019-02-20T03:36:02.884Z,17.47
2019-02-20T03:38:30.818Z,15.60
2019-02-20T03:40:58.849Z,18.63
2019-02-20T03:43:26.787Z,21.03
2019-02-20T03:45:54.659Z,18.20
2019-02-20T03:48:22.487Z,16.23
2019-02-20T03:50:50.431Z,16.65
2019-02-20T03:53:18.363Z,16.73
2019-02-20T03:55:46.809Z,16.75
2019-02-20T03:58:14.928Z,15.90
2019-02-20T04:00:42.773Z,15.65
2019-02-20T04:03:10.705Z,13.77
2019-02-20T04:05:38.672Z,16.83
2019-02-20T04:08:06.697Z,17.67
2019-02-20T04:10:34.465Z,16.43
2019-02-20T04:13:02.296Z,16.80
2019-02-20T04:15:30.232Z,17.03
2019-02-20T04:17:58.346Z,15.93
2019-02-20T04:20:26.158Z,17.25
2019-02-20T04:22:54.158Z,17.03
2019-02-20T04:25:21.932Z,14.03
2019-02-20T04:27:49.700Z,20.27
2019-02-20T04:30:18.213Z,15.25
2019-02-20T04:32:46.032Z,14.15
2019-02-20T04:35:13.825Z,17.50
2019-02-20T04:37:41.746Z,24.55
2019-02-20T04:40:09.844Z,17.00
2019-02-20T04:42:37.612Z,16.43
2019-02-20T04:45:06.115Z,18.57
2019-02-20T04:47:33.857Z,15.80
2019-02-20T04:50:01.852Z,17.07
2019-02-20T04:52:29.723Z,16.02
2019-02-20T04:54:58.129Z,14.28
2019-02-20T04:57:25.886Z,17.98
2019-02-20T04:59:53.692Z,19.63
2019-02-20T05:02:21.542Z,17.27
2019-02-20T05:04:49.572Z,18.37
2019-02-20T05:07:17.325Z,16.33
2019-02-20T05:09:48.064Z,16.93
2019-02-20T05:12:15.896Z,16.73
2019-02-20T05:14:44.527Z,15.70
2019-02-20T05:17:12.485Z,15.60
2019-02-20T05:19:40.385Z,19.17
2019-02-20T05:22:08.131Z,16.80
2019-02-20T05:24:35.951Z,14.55
2019-02-20T05:27:03.922Z,15.07
2019-02-20T05:29:31.836Z,17.10
2019-02-20T05:31:59.575Z,15.55
2019-02-20T05:34:27.490Z,14.78
2019-02-20T05:36:55.347Z,14.33
2019-02-20T05:39:23.171Z,15.80
2019-02-20T05:41:50.950Z,15.87
2019-02-20T05:44:18.752Z,15.10
2019-02-20T05:46:46.647Z,16.93
2019-02-20T05:49:14.405Z,17.20
2019-02-20T05:51:42.291Z,19.23
2019-02-20T05:54:10.070Z,16.43
2019-02-20T05:56:37.880Z,19.67
2019-02-20T05:59:05.837Z,18.17
2019-02-20T06:01:33.654Z,14.53
2019-02-20T06:04:01.494Z,18.83
2019-02-20T06:06:29.448Z,17.30
2019-02-20T06:08:57.422Z,15.33
2019-02-20T06:11:25.238Z,17.00
2019-02-20T06:13:53.007Z,15.67
2019-02-20T06:16:20.940Z,20.92
2019-02-20T06:18:48.699Z,15.75
2019-02-20T06:21:16.582Z,14.77
2019-02-20T06:23:44.409Z,17.50
2019-02-20T06:26:12.352Z,15.93
2019-02-20T06:28:40.198Z,13.60
2019-02-20T06:31:08.048Z,17.77
2019-02-20T06:33:36.427Z,19.07
2019-02-20T06:36:04.386Z,16.93
2019-02-20T06:38:32.182Z,15.03
2019-02-20T06:41:00.113Z,17.05
2019-02-20T06:43:27.940Z,18.40
2019-02-20T06:45:55.728Z,14.90
2019-02-20T06:48:23.494Z,12.53
2019-02-20T06:50:51.448Z,16.62
2019-02-20T06:55:53.984Z,14.60
2019-02-20T06:58:21.921Z,18.10
2019-02-20T07:00:49.730Z,18.93
2019-02-20T07:03:17.460Z,16.97
2019-02-20T07:06:09.466Z,13.07
2019-02-20T07:08:54.108Z,16.20
2019-02-20T07:12:02.570Z,17.40
2019-02-20T07:15:02.313Z,17.77
2019-02-20T07:18:02.404Z,17.35
2019-02-20T07:21:08.627Z,18.95
2019-02-20T07:24:03.019Z,19.40
2019-02-20T07:27:03.555Z,23.00
2019-02-20T07:29:59.801Z,17.32
2019-02-20T07:32:27.558Z,18.67
2019-02-20T07:34:55.501Z,15.97
2019-02-20T07:37:23.361Z,15.93
2019-02-20T07:39:51.313Z,19.80
2019-02-20T07:42:19.278Z,18.77
2019-02-20T07:44:47.073Z,20.10
2019-02-20T07:47:14.867Z,19.45
2019-02-20T07:49:42.623Z,17.10
2019-02-20T07:52:10.600Z,21.00
2019-02-20T07:54:38.350Z,18.87
2019-02-20T07:57:06.264Z,16.77
2019-02-20T07:59:34.000Z,20.30
2019-02-20T08:02:01.835Z,19.77
2019-02-20T08:04:29.584Z,19.40
2019-02-20T08:06:57.377Z,18.33
2019-02-20T08:09:25.369Z,22.30
2019-02-20T08:11:53.286Z,20.67
2019-02-20T08:14:21.115Z,18.48
2019-02-20T08:16:52.215Z,20.37
2019-02-20T08:19:18.613Z,22.67
2019-02-20T08:21:46.438Z,19.60
2019-02-20T08:24:14.173Z,18.75
2019-02-20T08:26:42.062Z,19.67
2019-02-20T08:29:10.252Z,18.63
2019-02-20T08:31:38.094Z,22.05
2019-02-20T08:34:05.962Z,21.67
2019-02-20T08:36:33.870Z,21.97
2019-02-20T08:39:01.625Z,18.30
2019-02-20T08:41:29.383Z,18.87
2019-02-20T08:43:57.277Z,23.13
2019-02-20T08:46:25.026Z,17.77
2019-02-20T08:48:52.834Z,20.93
2019-02-20T08:51:20.645Z,21.07
2019-02-20T08:53:48.450Z,18.53
2019-02-20T08:56:16.287Z,17.87
2019-02-20T08:58:44.176Z,17.92
2019-02-20T09:01:11.914Z,17.93
2019-02-20T09:03:39.838Z,16.40
2019-02-20T09:06:08.788Z,17.33
2019-02-20T09:08:36.616Z,19.33
2019-02-20T09:11:04.554Z,322.43
2019-02-20T09:13:32.928Z,223.37
2019-02-20T09:16:00.673Z,242.13
2019-02-20T09:18:28.494Z,217.67
2019-02-20T09:20:56.254Z,72.25
2019-02-20T09:23:24.041Z,26.40
2019-02-20T09:25:51.890Z,16.63
2019-02-20T09:28:19.708Z,16.33
2019-02-20T09:30:47.481Z,16.93
2019-02-20T09:33:15.391Z,19.40
2019-02-20T09:35:43.165Z,13.70
2019-02-20T09:38:10.966Z,13.37
2019-02-20T09:40:38.813Z,13.07
2019-02-20T09:43:06.767Z,13.10
2019-02-20T09:45:41.748Z,16.63
2019-02-20T09:48:04.482Z,13.37
2019-02-20T09:50:32.304Z,15.07
2019-02-20T09:53:00.133Z,12.03
2019-02-20T09:55:31.625Z,14.30
2019-02-20T09:57:59.654Z,15.30
2019-02-20T10:00:27.674Z,11.63
2019-02-20T10:02:55.545Z,13.83
2019-02-20T10:05:23.374Z,11.37
2019-02-20T10:07:51.173Z,11.10
2019-02-20T10:10:19.113Z,13.73
2019-02-20T10:12:46.886Z,11.73
2019-02-20T10:15:14.909Z,11.87
2019-02-20T10:17:42.787Z,8.53
2019-02-20T10:20:10.858Z,14.67
2019-02-20T10:22:38.749Z,11.03
2019-02-20T10:25:06.938Z,12.03
2019-02-20T10:27:35.174Z,11.47
2019-02-20T10:30:03.523Z,12.67
2019-02-20T10:32:31.491Z,14.37
2019-02-20T10:34:59.502Z,14.70
2019-02-20T10:37:27.278Z,10.27
2019-02-20T10:39:55.292Z,12.63
2019-02-20T10:42:23.476Z,14.47
2019-02-20T10:44:51.922Z,12.80
2019-02-20T10:47:19.710Z,10.93
2019-02-20T10:49:47.635Z,8.47
2019-02-20T10:52:15.672Z,9.90
2019-02-20T10:54:43.504Z,12.93
2019-02-20T10:57:11.425Z,10.27
2019-02-20T10:59:43.866Z,7.92
2019-02-20T11:02:12.116Z,14.73
2019-02-20T11:04:39.955Z,9.90
2019-02-20T11:07:07.858Z,7.50
2019-02-20T11:09:35.769Z,13.87
2019-02-20T11:12:03.544Z,14.17
2019-02-20T11:14:32.116Z,10.60
2019-02-20T11:16:59.949Z,10.33
2019-02-20T11:19:27.785Z,9.50
2019-02-20T11:21:55.635Z,12.93
2019-02-20T11:24:23.489Z,13.00
2019-02-20T11:26:55.054Z,9.13
2019-02-20T11:29:21.249Z,10.77
2019-02-20T11:31:49.863Z,11.73
2019-02-20T11:34:19.763Z,11.40
2019-02-20T11:36:49.326Z,9.20
2019-02-20T11:39:17.538Z,10.50
2019-02-20T11:41:46.750Z,9.60
2019-02-20T11:44:20.770Z,10.43
2019-02-20T11:46:44.722Z,9.77
2019-02-20T11:49:12.517Z,10.93
2019-02-20T11:51:40.498Z,11.80
2019-02-20T11:54:08.473Z,10.43
2019-02-20T11:56:36.344Z,9.90
2019-02-20T11:59:04.323Z,12.23
2019-02-20T12:01:32.324Z,10.23
2019-02-20T12:04:00.100Z,8.83
2019-02-20T12:06:27.957Z,9.40
2019-02-20T12:08:55.815Z,11.00
2019-02-20T12:11:23.625Z,8.17
2019-02-20T12:13:51.700Z,11.00
2019-02-20T12:16:19.508Z,8.00
2019-02-20T12:18:47.393Z,10.57
2019-02-20T12:21:15.384Z,11.77
2019-02-20T12:23:43.318Z,9.50
2019-02-20T12:26:11.370Z,10.83
2019-02-20T12:28:39.847Z,12.23
2019-02-20T12:31:07.790Z,13.03
2019-02-20T12:33:35.630Z,7.73
2019-02-20T12:36:03.731Z,11.80
2019-02-20T12:38:31.746Z,11.10
2019-02-20T12:41:00.113Z,8.93
2019-02-20T12:43:27.948Z,7.93
2019-02-20T12:45:55.821Z,12.03
2019-02-20T12:48:23.616Z,6.97
2019-02-20T12:50:52.173Z,7.87
2019-02-20T12:53:20.036Z,7.73
2019-02-20T12:55:47.907Z,7.17
2019-02-20T12:58:15.759Z,10.40
2019-02-20T13:00:43.831Z,9.83
2019-02-20T13:03:12.333Z,9.57
2019-02-20T13:05:40.137Z,6.70
2019-02-20T13:08:08.077Z,6.93
2019-02-20T13:10:36.932Z,12.80
2019-02-20T13:13:04.877Z,9.00
2019-02-20T13:15:32.870Z,7.63
2019-02-20T13:18:00.787Z,7.77
2019-02-20T13:20:28.547Z,7.37
2019-02-20T13:22:56.876Z,9.67
2019-02-20T13:25:24.625Z,6.43
2019-02-20T13:27:52.469Z,8.27
2019-02-20T13:30:20.244Z,6.33
2019-02-20T13:32:50.957Z,6.83
2019-02-20T13:35:18.849Z,8.03
2019-02-20T13:37:46.657Z,7.67
2019-02-20T13:40:14.635Z,9.30
2019-02-20T13:42:42.474Z,8.17
2019-02-20T13:45:10.417Z,5.10
2019-02-20T13:47:40.292Z,7.10
2019-02-20T13:50:08.298Z,6.47
2019-02-20T13:52:36.305Z,8.03
2019-02-20T13:55:06.218Z,8.67
2019-02-20T13:57:34.361Z,9.47
2019-02-20T14:00:02.403Z,7.90
2019-02-20T14:02:30.356Z,7.17
2019-02-20T14:04:58.150Z,9.83
2019-02-20T14:07:26.012Z,8.27
2019-02-20T14:09:53.923Z,9.97
2019-02-20T14:12:21.874Z,8.87
2019-02-20T14:14:49.669Z,10.37
2019-02-20T14:17:26.241Z,9.33
2019-02-20T14:19:47.379Z,7.00
2019-02-20T14:22:15.255Z,11.97
2019-02-20T14:24:43.114Z,11.17
2019-02-20T14:27:11.338Z,14.63
2019-02-20T14:29:39.408Z,11.43
2019-02-20T14:32:07.591Z,12.63
2019-02-20T14:34:35.518Z,14.80
2019-02-20T14:37:03.388Z,12.63
2019-02-20T14:39:31.230Z,11.27
2019-02-20T14:42:00.963Z,10.23
2019-02-20T14:44:28.846Z,11.20
2019-02-20T14:46:56.738Z,13.10
2019-02-20T14:49:24.737Z,9.13
2019-02-20T14:51:53.410Z,13.23
2019-02-20T14:54:21.514Z,10.53
2019-02-20T14:56:49.422Z,11.30
2019-02-20T14:59:17.377Z,13.30
2019-02-20T15:01:45.147Z,12.87
2019-02-20T15:04:13.295Z,13.50
2019-02-20T15:06:41.080Z,10.70
2019-02-20T15:09:09.053Z,12.10
2019-02-20T15:11:37.098Z,15.20
2019-02-20T15:14:05.034Z,12.57
2019-02-20T15:16:32.850Z,13.00
2019-02-20T15:19:00.615Z,11.77
2019-02-20T15:21:28.613Z,10.67
2019-02-20T15:23:56.487Z,10.50
2019-02-20T15:26:24.424Z,14.53
2019-02-20T15:28:52.170Z,9.83
2019-02-20T15:31:21.348Z,12.03
2019-02-20T15:33:49.224Z,12.33
2019-02-20T15:36:17.152Z,14.20
2019-02-20T15:38:46.108Z,12.03
2019-02-20T15:41:14.018Z,10.77
2019-02-20T15:43:53.156Z,11.40
2019-02-20T15:46:21.123Z,11.17
2019-02-20T15:48:48.889Z,12.47
2019-02-20T15:51:16.694Z,10.23
2019-02-20T15:53:44.956Z,15.37
2019-02-20T15:56:12.947Z,13.73
2019-02-20T15:58:40.974Z,13.03
2019-02-20T16:01:09.455Z,13.17
2019-02-20T16:03:38.022Z,13.27
2019-02-20T16:06:05.958Z,10.33
2019-02-20T16:08:33.943Z,11.13
2019-02-20T16:11:02.264Z,11.23
2019-02-20T16:13:30.059Z,9.00
2019-02-20T16:15:57.992Z,12.60
2019-02-20T16:18:25.940Z,12.60
2019-02-20T16:20:53.967Z,12.93
2019-02-20T16:23:21.842Z,8.93
2019-02-20T16:25:49.601Z,12.53
2019-02-20T16:28:17.814Z,18.33
2019-02-20T16:30:45.684Z,11.60
2019-02-20T16:33:13.506Z,17.73
2019-02-20T16:35:41.371Z,11.80
2019-02-20T16:38:09.310Z,19.13
2019-02-20T16:40:37.081Z,13.47
2019-02-20T16:43:05.128Z,15.90
2019-02-20T16:45:33.385Z,19.13
2019-02-20T16:48:01.312Z,18.30
2019-02-20T16:50:29.090Z,14.77
2019-02-20T16:52:56.893Z,25.43
2019-02-20T16:55:24.694Z,20.47
2019-02-20T16:57:56.554Z,16.07
2019-02-20T17:00:23.399Z,25.63
2019-02-20T17:02:51.709Z,67.57
2019-02-20T17:05:19.658Z,46.03
2019-02-20T17:07:47.690Z,54.83
2019-02-20T17:10:15.859Z,78.43
2019-02-20T17:12:43.892Z,37.53
2019-02-20T17:15:12.209Z,54.90
2019-02-20T17:17:40.226Z,66.87
2019-02-20T17:20:10.393Z,100.97
2019-02-20T17:22:38.470Z,67.90
2019-02-20T17:25:07.483Z,53.13
2019-02-20T17:27:35.477Z,47.23
2019-02-20T17:30:03.788Z,28.73
2019-02-20T17:32:33.042Z,25.53
2019-02-20T17:35:01.472Z,26.50
2019-02-20T17:37:29.388Z,27.13
2019-02-20T17:39:57.145Z,29.50
2019-02-20T17:42:24.971Z,30.77
2019-02-20T17:44:52.839Z,29.57
2019-02-20T17:47:20.738Z,57.50
2019-02-20T17:49:48.577Z,250.87
2019-02-20T17:52:16.831Z,171.00
2019-02-20T17:54:44.649Z,31.40
2019-02-20T17:57:12.676Z,23.77
2019-02-20T17:59:41.263Z,25.90
2019-02-20T18:02:09.524Z,30.53
2019-02-20T18:04:37.351Z,26.57
2019-02-20T18:07:05.293Z,26.17
2019-02-20T18:09:33.203Z,23.77
2019-02-20T18:12:01.586Z,30.43
2019-02-20T18:14:29.515Z,30.27
2019-02-20T18:16:58.094Z,25.63
2019-02-20T18:19:29.514Z,28.93
2019-02-20T18:21:57.463Z,26.83
2019-02-20T18:24:26.133Z,26.63
2019-02-20T18:26:53.944Z,28.23
2019-02-20T18:29:21.790Z,22.43
2019-02-20T18:31:49.675Z,193.20
2019-02-20T18:34:17.527Z,256.70
2019-02-20T18:36:45.391Z,97.10
2019-02-20T18:39:13.395Z,35.73
2019-02-20T18:41:41.250Z,29.87
2019-02-20T18:44:09.368Z,176.27
2019-02-20T18:46:37.140Z,180.53
2019-02-20T18:49:05.072Z,180.53
2019-02-20T18:51:32.820Z,63.30
2019-02-20T18:54:00.621Z,29.43
2019-02-20T18:56:28.418Z,30.97
2019-02-20T18:58:56.426Z,25.03
2019-02-20T19:01:24.268Z,25.00
2019-02-20T19:03:52.872Z,26.53
2019-02-20T19:06:20.756Z,30.20
2019-02-20T19:09:02.374Z,27.20
2019-02-20T19:11:53.360Z,21.80
2019-02-20T19:14:40.661Z,28.27
2019-02-20T19:17:51.033Z,25.37
2019-02-20T19:20:35.533Z,27.50
2019-02-20T19:23:36.804Z,23.70
2019-02-20T19:26:36.952Z,24.30
2019-02-20T19:29:43.398Z,28.10
2019-02-20T19:33:14.136Z,23.03
2019-02-20T19:36:11.692Z,194.90
2019-02-20T19:39:27.070Z,217.90
2019-02-20T19:42:46.691Z,29.07
2019-02-20T19:45:44.134Z,26.60
2019-02-20T19:48:49.432Z,22.93
2019-02-20T19:52:11.478Z,24.50
2019-02-20T19:54:57.767Z,28.40
2019-02-20T19:57:57.208Z,26.27
2019-02-20T20:01:02.023Z,26.80
2019-02-20T20:03:52.996Z,27.10
2019-02-20T20:06:49.685Z,21.33
2019-02-20T20:09:28.329Z,22.23
2019-02-20T20:12:33.465Z,28.57
2019-02-20T20:15:41.890Z,27.50
2019-02-20T20:18:50.203Z,25.83
2019-02-20T20:21:57.180Z,23.57
2019-02-20T20:24:56.885Z,25.50
2019-02-20T20:27:52.603Z,28.10
2019-02-20T20:30:43.635Z,32.83
2019-02-20T20:34:01.885Z,32.27
2019-02-20T20:37:16.151Z,27.47
2019-02-20T20:40:28.272Z,27.53
2019-02-20T20:43:40.106Z,27.53
2019-02-20T20:46:41.397Z,24.13
2019-02-20T20:49:37.591Z,27.87
2019-02-20T20:52:32.878Z,26.67
2019-02-20T20:55:33.882Z,28.10
2019-02-20T20:58:35.226Z,29.77
2019-02-20T21:01:36.564Z,25.60
2019-02-20T21:04:56.950Z,29.27
2019-02-20T21:07:52.729Z,33.50
2019-02-20T21:10:57.938Z,33.77
2019-02-20T21:13:39.453Z,30.90
2019-02-20T21:17:00.511Z,36.97
2019-02-20T21:20:05.619Z,32.53
2019-02-20T21:23:11.489Z,34.73
2019-02-20T21:26:33.873Z,38.37
2019-02-20T21:29:40.048Z,41.70
2019-02-20T21:33:00.111Z,42.80
2019-02-20T21:36:06.851Z,33.60
2019-02-20T21:38:59.333Z,34.53
2019-02-20T21:42:05.300Z,33.23
2019-02-20T21:44:54.957Z,36.60
2019-02-20T21:47:58.860Z,33.97
2019-02-20T21:50:49.298Z,31.57
2019-02-20T21:54:10.678Z,34.97
2019-02-20T21:57:12.550Z,28.73
2019-02-20T22:00:03.674Z,31.20
2019-02-20T22:02:54.838Z,28.60
2019-02-20T22:06:01.888Z,31.60
2019-02-20T22:09:13.277Z,29.07
2019-02-20T22:12:37.520Z,27.90
2019-02-20T22:15:55.279Z,33.67
2019-02-20T22:19:05.249Z,32.00
2019-02-20T22:22:00.278Z,28.10
2019-02-20T22:25:12.435Z,22.20
2019-02-20T22:28:03.939Z,24.90
2019-02-20T22:31:06.974Z,27.23
2019-02-20T22:33:55.696Z,24.97
2019-02-20T22:37:00.740Z,26.47
2019-02-20T22:39:53.739Z,26.43
2019-02-20T22:43:14.333Z,27.80
2019-02-20T22:45:56.684Z,23.13
2019-02-20T22:49:14.015Z,22.27
2019-02-20T22:52:11.369Z,23.20
2019-02-20T22:55:15.622Z,23.00
2019-02-20T22:57:50.614Z,21.23
2019-02-20T23:01:03.248Z,22.73
2019-02-20T23:03:59.171Z,26.20
2019-02-20T23:06:48.148Z,22.87
2019-02-20T23:09:43.491Z,20.63
2019-02-20T23:13:00.108Z,25.10
2019-02-20T23:15:28.060Z,23.73
2019-02-20T23:17:55.980Z,22.37
2019-02-20T23:20:23.748Z,16.13
2019-02-20T23:22:51.661Z,20.70
2019-02-20T23:25:19.543Z,24.57
2019-02-20T23:27:47.290Z,17.73
2019-02-20T23:30:18.556Z,17.57
2019-02-20T23:32:46.571Z,23.23
2019-02-20T23:35:14.516Z,22.67
2019-02-20T23:37:42.263Z,18.37
2019-02-20T23:40:10.305Z,19.63
2019-02-20T23:42:38.084Z,25.83
2019-02-20T23:45:06.091Z,18.00
2019-02-20T23:47:34.492Z,23.10
2019-02-20T23:50:02.348Z,26.70
2019-02-20T23:52:30.165Z,23.53
2019-02-20T23:54:57.947Z,17.77
2019-02-20T23:57:25.857Z,18.97
2019-02-20T23:59:53.944Z,21.23
